createdAt,value
2023-01-29T00:01:59.783Z,-0.58
2023-01-29T00:06:07.154Z,-0.63
2023-01-29T00:10:11.769Z,-0.64
2023-01-29T00:14:14.899Z,-0.60
2023-01-29T00:18:19.312Z,-0.60
2023-01-29T00:22:22.376Z,-0.62
2023-01-29T00:26:25.477Z,-0.61
2023-01-29T00:30:28.552Z,-0.69
2023-01-29T00:34:32.932Z,-0.72
2023-01-29T00:38:36.899Z,-0.74
2023-01-29T00:42:57.186Z,-0.73
2023-01-29T00:47:00.427Z,-0.77
2023-01-29T00:51:05.162Z,-0.79
2023-01-29T00:55:10.189Z,-0.82
2023-01-29T00:59:13.975Z,-0.84
2023-01-29T01:03:17.500Z,-0.89
2023-01-29T01:07:22.494Z,-0.92
2023-01-29T01:11:26.737Z,-0.99
2023-01-29T01:15:31.922Z,-1.00
2023-01-29T01:19:35.155Z,-1.04
2023-01-29T01:23:39.561Z,-1.09
2023-01-29T01:27:42.825Z,-1.10
2023-01-29T01:31:45.934Z,-1.11
2023-01-29T01:35:49.040Z,-1.16
2023-01-29T01:39:58.524Z,-1.15
2023-01-29T01:44:03.868Z,-1.18
2023-01-29T01:48:13.010Z,-1.16
2023-01-29T01:52:17.532Z,-1.18
2023-01-29T01:56:28.665Z,-1.23
2023-01-29T02:00:31.850Z,-1.27
2023-01-29T02:04:52.504Z,-1.30
2023-01-29T02:09:17.347Z,-1.36
2023-01-29T02:13:22.381Z,-1.37
2023-01-29T02:17:25.517Z,-1.34
2023-01-29T02:21:48.514Z,-1.40
2023-01-29T02:26:11.473Z,-1.38
2023-01-29T02:30:22.147Z,-1.40
2023-01-29T02:34:55.136Z,-1.41
2023-01-29T02:39:08.831Z,-1.45
2023-01-29T02:43:25.098Z,-1.45
2023-01-29T02:47:36.356Z,-1.46
2023-01-29T02:51:45.265Z,-1.50
2023-01-29T02:55:52.814Z,-1.48
2023-01-29T03:00:00.725Z,-1.48
2023-01-29T03:04:10.553Z,-1.54
2023-01-29T03:08:22.571Z,-1.52
2023-01-29T03:12:34.044Z,-1.56
2023-01-29T03:16:44.940Z,-1.60
2023-01-29T03:20:53.988Z,-1.63
2023-01-29T03:25:19.106Z,-1.64
2023-01-29T03:29:41.786Z,-1.62
2023-01-29T03:33:49.875Z,-1.65
2023-01-29T03:37:56.935Z,-1.65
2023-01-29T03:42:06.115Z,-1.66
2023-01-29T03:46:19.068Z,-1.66
2023-01-29T03:50:37.014Z,-1.65
2023-01-29T03:55:01.602Z,-1.68
2023-01-29T03:59:18.310Z,-1.75
2023-01-29T04:03:44.686Z,-1.76
2023-01-29T04:07:53.530Z,-1.82
2023-01-29T04:12:06.547Z,-1.84
2023-01-29T04:16:15.641Z,-1.83
2023-01-29T04:20:54.224Z,-1.84
2023-01-29T04:25:02.463Z,-1.86
2023-01-29T04:29:21.669Z,-1.89
2023-01-29T04:33:38.260Z,-1.91
2023-01-29T04:37:46.212Z,-1.92
2023-01-29T04:41:55.049Z,-1.92
2023-01-29T04:46:14.290Z,-1.93
2023-01-29T04:50:22.216Z,-1.96
2023-01-29T04:54:34.857Z,-1.97
2023-01-29T04:58:42.671Z,-1.99
2023-01-29T05:02:48.244Z,-1.99
2023-01-29T05:06:52.324Z,-1.96
2023-01-29T05:10:58.403Z,-1.96
2023-01-29T05:15:05.274Z,-2.00
2023-01-29T05:19:10.564Z,-1.99
2023-01-29T05:23:18.152Z,-1.99
2023-01-29T05:27:46.728Z,-2.00
2023-01-29T05:31:49.835Z,-2.05
2023-01-29T05:35:55.374Z,-2.04
2023-01-29T05:39:58.450Z,-2.08
2023-01-29T05:44:01.467Z,-2.09
2023-01-29T05:48:04.714Z,-2.13
2023-01-29T05:52:09.077Z,-2.16
2023-01-29T05:56:12.203Z,-2.19
2023-01-29T06:00:16.668Z,-2.23
2023-01-29T06:04:19.850Z,-2.32
2023-01-29T06:08:24.285Z,-2.40
2023-01-29T06:12:28.451Z,-2.45
2023-01-29T06:16:31.493Z,-2.46
2023-01-29T06:20:34.565Z,-2.57
2023-01-29T06:24:39.084Z,-2.64
2023-01-29T06:28:42.623Z,-2.74
2023-01-29T06:32:45.608Z,-2.77
2023-01-29T06:36:48.802Z,-2.83
2023-01-29T06:40:53.832Z,-2.88
2023-01-29T06:44:56.864Z,-2.91
2023-01-29T06:49:01.282Z,-2.94
2023-01-29T06:53:04.342Z,-2.98
2023-01-29T06:57:08.724Z,-3.02
2023-01-29T07:01:25.530Z,-3.06
2023-01-29T07:05:36.444Z,-3.06
2023-01-29T07:09:39.799Z,-3.08
2023-01-29T07:13:44.391Z,-3.11
2023-01-29T07:17:57.359Z,-3.10
2023-01-29T07:22:02.424Z,-3.12
2023-01-29T07:26:06.953Z,-3.12
2023-01-29T07:30:12.862Z,-3.11
2023-01-29T07:34:15.904Z,-3.07
2023-01-29T07:38:19.094Z,-3.13
2023-01-29T07:42:22.198Z,-3.10
2023-01-29T07:46:26.578Z,-3.08
2023-01-29T07:50:29.602Z,-3.08
2023-01-29T07:54:32.752Z,-3.04
2023-01-29T07:58:36.815Z,-3.06
2023-01-29T08:02:41.441Z,-3.05
2023-01-29T08:06:44.490Z,-3.01
2023-01-29T08:10:47.517Z,-3.00
2023-01-29T08:14:51.315Z,-3.00
2023-01-29T08:18:55.679Z,-2.90
2023-01-29T08:23:02.535Z,-2.86
2023-01-29T08:27:05.535Z,-2.82
2023-01-29T08:31:14.941Z,-2.82
2023-01-29T08:35:19.677Z,-2.73
2023-01-29T08:39:23.151Z,-2.65
2023-01-29T08:43:26.163Z,-2.61
2023-01-29T08:47:29.711Z,-2.52
2023-01-29T08:51:34.107Z,-2.40
2023-01-29T08:55:38.324Z,-2.44
2023-01-29T08:59:41.337Z,-2.47
2023-01-29T09:03:44.804Z,-2.49
2023-01-29T09:07:49.189Z,-2.44
2023-01-29T09:11:52.247Z,-2.31
2023-01-29T09:15:56.110Z,-2.26
2023-01-29T09:19:59.935Z,-2.16
2023-01-29T09:24:04.508Z,-2.11
2023-01-29T09:28:07.515Z,-2.14
2023-01-29T09:32:10.498Z,-2.17
2023-01-29T09:36:14.591Z,-2.15
2023-01-29T09:40:27.014Z,-2.14
2023-01-29T09:44:50.770Z,-2.11
2023-01-29T09:49:02.568Z,-2.19
2023-01-29T09:53:16.297Z,-2.15
2023-01-29T09:57:26.276Z,-2.18
2023-01-29T10:01:36.181Z,-2.17
2023-01-29T10:05:55.902Z,-2.13
2023-01-29T10:10:11.557Z,-2.04
2023-01-29T10:14:25.164Z,-1.93
2023-01-29T10:18:43.203Z,-1.92
2023-01-29T10:22:59.550Z,-1.96
2023-01-29T10:27:04.359Z,-1.92
2023-01-29T10:31:13.755Z,-1.92
2023-01-29T10:35:23.935Z,-1.92
2023-01-29T10:39:28.154Z,-1.89
2023-01-29T10:43:40.275Z,-1.86
2023-01-29T10:48:33.940Z,-1.89
2023-01-29T10:52:51.020Z,-1.87
2023-01-29T10:57:06.620Z,-1.86
2023-01-29T11:01:10.486Z,-1.73
2023-01-29T11:05:24.353Z,-1.71
2023-01-29T11:09:33.218Z,-1.77
2023-01-29T11:13:41.756Z,-1.79
2023-01-29T11:18:03.669Z,-1.77
2023-01-29T11:22:15.819Z,-1.72
2023-01-29T11:26:22.361Z,-1.71
2023-01-29T11:30:28.314Z,-1.77
2023-01-29T11:34:32.260Z,-1.75
2023-01-29T11:38:36.645Z,-1.76
2023-01-29T11:42:39.659Z,-1.82
2023-01-29T11:46:42.965Z,-1.84
2023-01-29T11:50:53.018Z,-1.78
2023-01-29T11:55:02.276Z,-1.75
2023-01-29T11:59:05.912Z,-1.70
2023-01-29T12:03:16.698Z,-1.71
2023-01-29T12:07:20.720Z,-1.76
2023-01-29T12:11:30.725Z,-1.70
2023-01-29T12:15:35.319Z,-1.67
2023-01-29T12:19:45.564Z,-1.67
2023-01-29T12:23:56.197Z,-1.62
2023-01-29T12:28:05.633Z,-1.56
2023-01-29T12:32:21.114Z,-1.51
2023-01-29T12:36:30.052Z,-1.52
2023-01-29T12:40:43.627Z,-1.50
2023-01-29T12:44:51.816Z,-1.38
2023-01-29T12:48:57.847Z,-1.33
2023-01-29T12:53:06.083Z,-1.31
2023-01-29T12:57:19.247Z,-1.28
2023-01-29T13:01:31.262Z,-1.30
2023-01-29T13:05:39.855Z,-1.36
2023-01-29T13:09:47.495Z,-1.34
2023-01-29T13:13:55.170Z,-1.38
2023-01-29T13:18:03.916Z,-1.22
2023-01-29T13:22:18.524Z,-1.22
2023-01-29T13:26:23.305Z,-1.23
2023-01-29T13:30:31.302Z,-1.19
2023-01-29T13:34:38.825Z,-1.20
2023-01-29T13:38:46.996Z,-1.25
2023-01-29T13:42:53.203Z,-1.25
2023-01-29T13:46:59.460Z,-1.21
2023-01-29T13:51:05.852Z,-1.21
2023-01-29T13:55:22.284Z,-1.30
2023-01-29T13:59:46.220Z,-1.29
2023-01-29T14:04:04.768Z,-1.31
2023-01-29T14:08:38.941Z,-1.30
2023-01-29T14:12:43.897Z,-1.22
2023-01-29T14:16:47.421Z,-1.23
2023-01-29T14:20:59.637Z,-1.17
2023-01-29T14:25:06.370Z,-1.17
2023-01-29T14:29:29.059Z,-1.15
2023-01-29T14:33:41.163Z,-1.19
2023-01-29T14:37:50.790Z,-1.25
2023-01-29T14:41:54.136Z,-1.29
2023-01-29T14:46:35.750Z,-1.33
2023-01-29T14:50:55.191Z,-1.32
2023-01-29T14:55:04.063Z,-1.29
2023-01-29T14:59:17.782Z,-1.31
2023-01-29T15:03:27.936Z,-1.31
2023-01-29T15:07:35.977Z,-1.33
2023-01-29T15:11:49.858Z,-1.33
2023-01-29T15:15:56.227Z,-1.39
2023-01-29T15:19:59.309Z,-1.41
2023-01-29T15:24:06.667Z,-1.47
2023-01-29T15:28:12.633Z,-1.48
2023-01-29T15:32:28.459Z,-1.48
2023-01-29T15:36:33.190Z,-1.45
2023-01-29T15:40:36.205Z,-1.43
2023-01-29T15:44:46.499Z,-1.45
2023-01-29T15:48:50.969Z,-1.45
2023-01-29T15:52:56.131Z,-1.46
2023-01-29T15:57:00.319Z,-1.48
2023-01-29T16:01:05.260Z,-1.51
2023-01-29T16:05:14.281Z,-1.52
2023-01-29T16:09:23.609Z,-1.52
2023-01-29T16:13:30.036Z,-1.54
2023-01-29T16:17:37.698Z,-1.54
2023-01-29T16:21:45.984Z,-1.45
2023-01-29T16:25:50.738Z,-1.41
2023-01-29T16:29:54.248Z,-1.38
2023-01-29T16:34:00.215Z,-1.38
2023-01-29T16:38:09.135Z,-1.37
2023-01-29T16:42:29.966Z,-1.37
2023-01-29T16:46:35.377Z,-1.37
2023-01-29T16:50:53.921Z,-1.29
2023-01-29T16:55:20.620Z,-1.38
2023-01-29T16:59:33.686Z,-1.47
2023-01-29T17:03:38.361Z,-1.48
2023-01-29T17:07:46.986Z,-1.49
2023-01-29T17:11:56.776Z,-1.45
2023-01-29T17:16:02.801Z,-1.41
2023-01-29T17:20:14.825Z,-1.38
2023-01-29T17:24:19.475Z,-1.34
2023-01-29T17:28:22.521Z,-1.34
2023-01-29T17:32:45.243Z,-1.30
2023-01-29T17:36:50.416Z,-1.28
2023-01-29T17:40:57.445Z,-1.28
2023-01-29T17:45:00.488Z,-1.27
2023-01-29T17:49:04.507Z,-1.23
2023-01-29T17:53:07.639Z,-1.22
2023-01-29T17:57:15.525Z,-1.23
2023-01-29T18:01:18.687Z,-1.23
2023-01-29T18:05:21.739Z,-1.23
2023-01-29T18:09:24.987Z,-1.25
2023-01-29T18:13:29.757Z,-1.26
2023-01-29T18:17:32.783Z,-1.29
2023-01-29T18:21:35.822Z,-1.30
2023-01-29T18:25:39.840Z,-1.31
2023-01-29T18:29:44.207Z,-1.33
2023-01-29T18:33:47.450Z,-1.35
2023-01-29T18:37:51.443Z,-1.38
2023-01-29T18:41:54.439Z,-1.43
2023-01-29T18:46:00.310Z,-1.47
2023-01-29T18:50:03.375Z,-1.49
2023-01-29T18:54:06.499Z,-1.52
2023-01-29T18:58:26.655Z,-1.56
2023-01-29T19:02:34.398Z,-1.59
2023-01-29T19:06:38.041Z,-1.60
2023-01-29T19:10:41.587Z,-1.63
2023-01-29T19:14:44.686Z,-1.63
2023-01-29T19:18:49.111Z,-1.65
2023-01-29T19:22:52.243Z,-1.68
2023-01-29T19:26:55.791Z,-1.70
2023-01-29T19:30:59.099Z,-1.74
2023-01-29T19:35:03.662Z,-1.75
2023-01-29T19:39:06.880Z,-1.74
2023-01-29T19:43:09.929Z,-1.78
2023-01-29T19:47:13.069Z,-1.84
2023-01-29T19:51:17.502Z,-1.87
2023-01-29T19:55:21.664Z,-1.91
2023-01-29T19:59:24.763Z,-1.94
2023-01-29T20:03:29.308Z,-2.01
2023-01-29T20:07:33.712Z,-2.11
2023-01-29T20:11:36.753Z,-2.14
2023-01-29T20:15:39.822Z,-2.17
2023-01-29T20:19:42.837Z,-2.22
2023-01-29T20:23:47.339Z,-2.21
2023-01-29T20:27:50.560Z,-2.23
2023-01-29T20:31:53.628Z,-2.25
2023-01-29T20:35:57.391Z,-2.24
2023-01-29T20:40:01.787Z,-2.27
2023-01-29T20:44:04.864Z,-2.29
2023-01-29T20:48:08.851Z,-2.32
2023-01-29T20:52:12.512Z,-2.36
2023-01-29T20:56:18.299Z,-2.40
2023-01-29T21:00:27.584Z,-2.46
2023-01-29T21:04:31.378Z,-2.51
2023-01-29T21:08:35.358Z,-2.50
2023-01-29T21:12:39.753Z,-2.54
2023-01-29T21:16:42.797Z,-2.56
2023-01-29T21:20:46.007Z,-2.60
2023-01-29T21:24:49.037Z,-2.65
2023-01-29T21:28:53.977Z,-2.68
2023-01-29T21:32:57.097Z,-2.73
2023-01-29T21:37:00.160Z,-2.76
2023-01-29T21:41:05.293Z,-2.78
2023-01-29T21:45:11.096Z,-2.80
2023-01-29T21:49:14.093Z,-2.80
2023-01-29T21:53:17.227Z,-2.85
2023-01-29T21:57:20.296Z,-2.90
2023-01-29T22:01:37.423Z,-2.98
2023-01-29T22:05:41.653Z,-3.06
2023-01-29T22:09:44.687Z,-3.14
2023-01-29T22:13:48.062Z,-3.17
2023-01-29T22:17:52.739Z,-3.18
2023-01-29T22:21:56.258Z,-3.18
2023-01-29T22:26:03.563Z,-3.22
2023-01-29T22:30:08.103Z,-3.24
2023-01-29T22:34:13.419Z,-3.23
2023-01-29T22:38:16.476Z,-3.23
2023-01-29T22:42:20.255Z,-3.29
2023-01-29T22:46:23.296Z,-3.35
2023-01-29T22:50:27.860Z,-3.36
2023-01-29T22:54:30.914Z,-3.41
2023-01-29T22:58:34.153Z,-3.52
2023-01-29T23:02:37.403Z,-3.60
2023-01-29T23:06:41.970Z,-3.64
2023-01-29T23:10:45.149Z,-3.65
2023-01-29T23:14:48.192Z,-3.65
2023-01-29T23:18:53.402Z,-3.64
2023-01-29T23:22:57.882Z,-3.60
2023-01-29T23:27:15.827Z,-3.57
2023-01-29T23:31:19.282Z,-3.50
2023-01-29T23:35:22.368Z,-3.50
2023-01-29T23:39:26.793Z,-3.53
2023-01-29T23:43:30.603Z,-3.55
2023-01-29T23:47:33.655Z,-3.61
2023-01-29T23:51:36.731Z,-3.64
2023-01-29T23:55:41.457Z,-3.67
2023-01-29T23:59:44.541Z,-3.66
